Terminal Aerodrome Forecast
Issued by NWS

Home | Current Version | Previous Version | Text Only | Print | Product List | Glossary On
Versions: 1 2 3 4 5 6 7 8 9 10 11 12 13 14 15 16 17 18 19 20 21 22 23 24 25 26 27 28 29 30 31 32 33 34 35 36 37 38 39 40 41 42 43 44 45 46 47 48 49 50
000
FTUS43 KLOT 302335
TAFGYY
TAF
KGYY 302335Z 0100/0124 06015G22KT 2SM -RADZ BR OVC005
     FM010600 04012KT 3SM -DZ BR OVC003
     FM011700 03010KT 5SM BR VCSH OVC008
     FM012200 02010G16KT 5SM -SHRA OVC010=

USA.gov is the U.S. government's official web portal to all federal, state and local government web resources and services.